Time;durP1;ratioP1;P1;durP2;ratioP2;P2;SDS_P1;SDS_P2;PMS_P1;PMS_P2;Temp;Humidity;BMP_temperature;BMP_pressure;BME280_temperature;BME280_humidity;BME280_pressure;Samples;Min_cycle;Max_cycle;Signal;HPM_P1;HPM_P2
2023/05/01 00:01:22;;;;;;;1.40;1.20;;;;;;;21.11;38.74;101885.31;5030610;28;20026;-72
2023/05/01 00:03:48;;;;;;;1.40;1.30;;;;;;;21.29;38.42;101872.25;5030518;28;20095;-69
2023/05/01 00:06:13;;;;;;;3.80;1.40;;;;;;;21.29;38.34;101869.59;5030563;28;20103;-69
2023/05/01 00:08:38;;;;;;;2.17;1.43;;;;;;;21.00;37.92;101871.59;5032965;28;20030;-69
2023/05/01 00:11:04;;;;;;;2.37;1.70;;;;;;;21.18;38.60;101876.22;5030111;28;20019;-70
2023/05/01 00:13:31;;;;;;;1.50;1.30;;;;;;;21.21;38.24;101877.00;5032133;28;20032;-70
2023/05/01 00:15:56;;;;;;;1.70;1.60;;;;;;;21.18;38.80;101876.22;5030973;28;20032;-71
2023/05/01 00:18:22;;;;;;;2.33;1.70;;;;;;;21.16;38.39;101863.91;5029652;28;20029;-70
2023/05/01 00:20:47;;;;;;;1.73;1.57;;;;;;;21.19;38.04;101859.31;5032204;28;20538;-70
2023/05/01 00:23:12;;;;;;;2.83;1.80;;;;;;;21.28;38.38;101852.81;5031559;28;20472;-69
2023/05/01 00:25:38;;;;;;;4.70;1.60;;;;;;;21.37;38.19;101856.88;5031548;28;20106;-69
2023/05/01 00:28:05;;;;;;;4.27;1.60;;;;;;;21.19;38.36;101853.16;5030560;28;20017;-69
2023/05/01 00:30:32;;;;;;;3.37;1.67;;;;;;;21.07;38.24;101849.16;5047319;28;20028;-69
2023/05/01 00:32:58;;;;;;;2.10;1.27;;;;;;;21.17;37.99;101849.66;5046824;28;20021;-69
2023/05/01 00:35:23;;;;;;;2.13;1.70;;;;;;;21.49;37.63;101845.75;5046639;28;20081;-70
2023/05/01 00:37:49;;;;;;;2.47;1.63;;;;;;;21.39;37.54;101841.75;5032016;28;20492;-70
2023/05/01 00:40:15;;;;;;;6.77;2.37;;;;;;;21.29;37.62;101849.19;5029297;28;20473;-69
2023/05/01 00:42:40;;;;;;;3.73;1.47;;;;;;;21.22;37.45;101841.53;5047232;28;20029;-70
2023/05/01 00:45:07;;;;;;;1.40;1.10;;;;;;;21.13;37.83;101835.66;5029911;28;20412;-69
2023/05/01 00:47:34;;;;;;;1.33;1.13;;;;;;;21.46;36.92;101832.59;5030099;28;20033;-70
2023/05/01 00:50:00;;;;;;;1.83;1.37;;;;;;;21.65;36.86;101823.88;5031534;28;20477;-70
2023/05/01 00:52:25;;;;;;;1.43;1.30;;;;;;;21.25;37.31;101825.47;5028774;28;20040;-70
2023/05/01 00:54:51;;;;;;;1.50;1.20;;;;;;;21.66;36.89;101817.63;5030152;28;20453;-69
2023/05/01 00:57:20;;;;;;;4.33;1.30;;;;;;;21.38;37.06;101816.06;5029733;28;20025;-69
2023/05/01 00:59:46;;;;;;;1.43;1.10;;;;;;;21.71;36.26;101810.34;5029449;28;20047;-69
2023/05/01 01:02:12;;;;;;;2.00;1.30;;;;;;;21.75;36.52;101809.28;5029492;28;20474;-70
2023/05/01 01:04:42;;;;;;;1.33;1.00;;;;;;;21.67;36.21;101808.75;5030733;28;20022;-69
2023/05/01 01:07:32;;;;;;;3.73;1.20;;;;;;;21.29;36.81;101800.47;5029015;28;20145;-69
2023/05/01 01:09:57;;;;;;;1.80;1.47;;;;;;;21.26;36.88;101795.28;5022495;28;20037;-70
2023/05/01 01:12:45;;;;;;;2.53;1.23;;;;;;;21.32;36.27;101795.03;5029397;28;20592;-69
2023/05/01 01:15:30;;;;;;;1.87;1.20;;;;;;;21.12;37.09;101783.41;5021203;28;20041;-70
2023/05/01 01:18:18;;;;;;;2.33;1.30;;;;;;;21.32;36.91;101779.09;5029857;28;20675;-69
2023/05/01 01:20:52;;;;;;;2.90;1.30;;;;;;;21.01;37.03;101782.97;5030140;28;20457;-69
2023/05/01 01:23:45;;;;;;;1.27;1.13;;;;;;;20.56;37.76;101773.13;5030519;28;20508;-71
2023/05/01 01:26:23;;;;;;;3.90;1.27;;;;;;;20.10;38.36;101771.22;5028895;28;20048;-70
2023/05/01 01:29:15;;;;;;;1.53;1.10;;;;;;;20.46;38.42;101773.47;5030124;28;20056;-70
2023/05/01 01:32:16;;;;;;;1.42;1.30;;;;;;;20.88;36.69;101763.09;5030719;28;20036;-70
2023/05/01 01:34:46;;;;;;;3.40;1.27;;;;;;;20.76;37.28;101752.03;5017993;28;20586;-70
2023/05/01 01:37:28;;;;;;;2.30;1.70;;;;;;;21.11;36.77;101755.09;5030269;28;20084;-70
2023/05/01 01:40:03;;;;;;;1.75;1.13;;;;;;;20.90;37.04;101747.97;5029259;28;20175;-70
2023/05/01 01:42:37;;;;;;;1.63;1.00;;;;;;;20.61;37.03;101745.47;5027931;28;20420;-71
2023/05/01 01:45:12;;;;;;;1.27;1.13;;;;;;;20.73;37.04;101738.00;5029115;28;20029;-69
2023/05/01 01:47:40;;;;;;;1.60;1.33;;;;;;;21.35;35.79;101736.44;5029415;28;20025;-70
2023/05/01 01:50:08;;;;;;;1.73;1.33;;;;;;;20.83;37.00;101732.25;5044592;28;20091;-70
2023/05/01 01:52:35;;;;;;;1.67;1.30;;;;;;;21.71;36.03;101727.88;5030516;28;20049;-70
2023/05/01 01:55:15;;;;;;;2.23;1.20;;;;;;;21.63;35.71;101727.34;5030295;28;20025;-70
2023/05/01 01:57:43;;;;;;;1.90;1.63;;;;;;;21.21;36.23;101733.47;5029588;28;20068;-70
2023/05/01 02:00:11;;;;;;;2.73;1.57;;;;;;;21.47;35.71;101741.25;5029724;28;20060;-70
2023/05/01 02:02:40;;;;;;;1.50;1.10;;;;;;;22.05;34.95;101729.06;5045013;28;20029;-70
2023/05/01 02:05:13;;;;;;;3.70;1.30;;;;;;;21.45;35.88;101732.44;5029678;28;20443;-71
2023/05/01 02:07:40;;;;;;;3.87;1.60;;;;;;;21.05;36.05;101719.91;5030236;28;20032;-71
2023/05/01 02:10:11;;;;;;;2.63;1.10;;;;;;;20.78;36.62;101723.59;5028967;28;20021;-70
2023/05/01 02:12:37;;;;;;;2.13;1.17;;;;;;;21.01;36.60;101714.72;5028589;28;20026;-70
2023/05/01 02:15:06;;;;;;;4.30;1.53;;;;;;;20.67;37.28;101707.19;5029974;28;20040;-70
2023/05/01 02:17:35;;;;;;;1.93;1.53;;;;;;;21.08;36.47;101707.38;5029357;28;20099;-70
2023/05/01 02:20:04;;;;;;;2.33;1.27;;;;;;;20.86;36.74;101706.53;5028703;28;20048;-71
2023/05/01 02:22:30;;;;;;;1.47;1.33;;;;;;;21.04;36.80;101699.59;5028609;28;20388;-70
2023/05/01 02:24:58;;;;;;;2.97;1.10;;;;;;;20.95;36.68;101700.81;5028052;28;20028;-70
2023/05/01 02:27:30;;;;;;;1.47;1.00;;;;;;;20.73;37.35;101704.34;5044591;28;20033;-70
2023/05/01 02:29:56;;;;;;;2.28;1.10;;;;;;;21.58;35.54;101700.06;5029994;28;20116;-70
2023/05/01 02:32:22;;;;;;;1.70;1.03;;;;;;;21.41;35.67;101693.63;5027220;28;20021;-70
2023/05/01 02:34:48;;;;;;;1.70;1.20;;;;;;;20.87;37.05;101697.59;5029786;28;20032;-70
2023/05/01 02:37:13;;;;;;;2.23;1.30;;;;;;;21.11;36.00;101701.94;5028266;28;20018;-70
2023/05/01 02:39:39;;;;;;;2.40;1.13;;;;;;;21.56;35.10;101692.16;5027721;28;20473;-71
2023/05/01 02:42:08;;;;;;;1.63;1.23;;;;;;;21.54;36.04;101690.47;5028120;28;20393;-71
2023/05/01 02:44:45;;;;;;;2.93;1.37;;;;;;;21.73;35.78;101694.06;5028382;28;20032;-71
2023/05/01 02:47:16;;;;;;;1.63;1.30;;;;;;;21.40;36.22;101689.22;5028013;28;20037;-70
2023/05/01 02:49:45;;;;;;;1.83;1.27;;;;;;;21.91;35.64;101686.22;5028489;28;20032;-71
2023/05/01 02:52:12;;;;;;;3.20;1.20;;;;;;;21.34;36.42;101681.53;5027110;28;20045;-70
2023/05/01 02:54:38;;;;;;;2.70;1.43;;;;;;;21.62;35.29;101683.03;5028337;28;20092;-70
2023/05/01 02:57:06;;;;;;;1.20;1.10;;;;;;;21.57;36.12;101671.72;5029847;28;20489;-70
2023/05/01 02:59:32;;;;;;;1.20;1.10;;;;;;;21.65;35.39;101669.59;5027395;28;20123;-70
2023/05/01 03:01:58;;;;;;;3.40;1.40;;;;;;;21.50;35.60;101661.31;5029557;28;20083;-71
2023/05/01 03:04:24;;;;;;;1.80;1.10;;;;;;;21.94;35.86;101665.66;5029205;28;20033;-71
2023/05/01 03:06:49;;;;;;;4.43;1.40;;;;;;;21.72;35.86;101668.41;5044016;28;20032;-70
2023/05/01 03:09:15;;;;;;;1.87;1.27;;;;;;;21.77;35.61;101662.88;5029279;28;20542;-70
2023/05/01 03:11:40;;;;;;;2.17;1.50;;;;;;;21.76;35.35;101656.72;5028049;28;20120;-70
2023/05/01 03:14:06;;;;;;;2.07;1.17;;;;;;;21.43;35.35;101665.19;5027133;28;20033;-70
2023/05/01 03:16:31;;;;;;;2.03;1.30;;;;;;;21.43;35.80;101649.22;5027908;28;20075;-70
2023/05/01 03:18:56;;;;;;;4.87;1.47;;;;;;;21.46;35.77;101649.09;5029531;28;20417;-70
2023/05/01 03:21:22;;;;;;;1.90;1.33;;;;;;;21.09;36.23;101653.31;5043402;28;20026;-69
2023/05/01 03:23:47;;;;;;;2.20;1.40;;;;;;;21.30;36.62;101650.69;5028208;28;20067;-71
2023/05/01 03:26:13;;;;;;;5.30;1.67;;;;;;;21.69;35.23;101644.59;5027595;28;20573;-70
2023/05/01 03:28:38;;;;;;;1.33;1.10;;;;;;;21.55;35.94;101647.00;5032532;28;20029;-71
2023/05/01 03:31:04;;;;;;;2.23;1.53;;;;;;;21.72;35.59;101639.16;5031382;28;20057;-70
2023/05/01 03:33:30;;;;;;;7.93;1.23;;;;;;;21.68;36.15;101637.56;5031623;28;20029;-71
2023/05/01 03:36:05;;;;;;;1.47;1.20;;;;;;;21.74;35.88;101639.09;5030784;28;20349;-70
2023/05/01 03:38:31;;;;;;;2.30;1.60;;;;;;;22.00;35.29;101621.94;5032891;28;20477;-70
2023/05/01 03:40:58;;;;;;;1.20;1.07;;;;;;;21.73;35.83;101635.53;5031477;28;20021;-70
2023/05/01 03:43:24;;;;;;;1.67;1.10;;;;;;;21.34;36.37;101633.66;5030836;28;20278;-71
2023/05/01 03:45:50;;;;;;;1.93;1.43;;;;;;;21.45;35.97;101636.72;5031276;28;20025;-71
2023/05/01 03:48:16;;;;;;;1.13;1.00;;;;;;;20.74;37.15;101622.84;5030129;28;20394;-70
2023/05/01 03:50:42;;;;;;;2.57;1.30;;;;;;;21.22;36.76;101623.56;5031521;28;20021;-70
2023/05/01 03:53:07;;;;;;;2.00;1.73;;;;;;;21.52;36.38;101619.59;5030701;28;20046;-70
2023/05/01 03:55:32;;;;;;;2.45;1.42;;;;;;;21.62;36.33;101621.84;5030506;28;20025;-70
2023/05/01 03:57:58;;;;;;;4.63;1.43;;;;;;;21.20;37.06;101615.66;5031221;28;20021;-70
2023/05/01 04:00:23;;;;;;;1.27;1.07;;;;;;;21.31;36.66;101617.84;5030913;28;20032;-71
2023/05/01 04:02:49;;;;;;;2.63;1.58;;;;;;;21.38;36.29;101616.66;5032029;28;20018;-71
2023/05/01 04:05:14;;;;;;;1.93;1.73;;;;;;;20.98;37.76;101613.03;5030629;28;20395;-70
2023/05/01 04:07:40;;;;;;;3.50;1.50;;;;;;;21.31;36.43;101615.19;5031087;28;20014;-71
2023/05/01 04:10:08;;;;;;;5.63;1.27;;;;;;;21.17;36.63;101616.63;5031203;28;20122;-71
2023/05/01 04:12:33;;;;;;;2.83;1.63;;;;;;;20.91;36.74;101612.41;5030978;28;20044;-70
2023/05/01 04:14:59;;;;;;;3.17;1.50;;;;;;;20.96;36.91;101612.22;5032352;28;20473;-70
2023/05/01 04:17:24;;;;;;;2.07;1.17;;;;;;;20.98;37.35;101615.69;5029604;28;20072;-70
2023/05/01 04:19:49;;;;;;;1.50;1.20;;;;;;;21.37;36.24;101606.94;5032279;28;20064;-70
2023/05/01 04:22:15;;;;;;;3.00;1.37;;;;;;;21.17;36.20;101606.00;5030401;28;20109;-69
2023/05/01 04:24:41;;;;;;;3.20;1.20;;;;;;;20.89;37.36;101605.44;5031340;28;20029;-71
2023/05/01 04:27:06;;;;;;;1.70;1.07;;;;;;;20.97;37.00;101608.63;5031376;28;20022;-71
2023/05/01 04:29:31;;;;;;;2.27;1.40;;;;;;;20.75;37.56;101609.50;5030596;28;20049;-71
2023/05/01 04:31:57;;;;;;;4.13;1.70;;;;;;;21.26;36.93;101611.84;5031076;28;20392;-70
2023/05/01 04:34:22;;;;;;;2.53;1.43;;;;;;;21.27;36.87;101603.81;5031359;28;20370;-71
2023/05/01 04:36:48;;;;;;;4.47;1.20;;;;;;;21.52;36.33;101606.28;5030440;28;20143;-70
2023/05/01 04:39:13;;;;;;;1.73;1.00;;;;;;;21.19;36.50;101598.81;5030650;28;20428;-70
2023/05/01 04:41:38;;;;;;;3.47;1.43;;;;;;;20.99;36.66;101606.75;5031941;28;20442;-71
2023/05/01 04:44:04;;;;;;;3.30;1.40;;;;;;;20.98;36.38;101605.91;5030062;28;20022;-70
2023/05/01 04:46:29;;;;;;;2.33;1.40;;;;;;;21.52;35.85;101616.03;5029751;28;20025;-70
2023/05/01 04:48:55;;;;;;;1.77;1.30;;;;;;;21.30;36.78;101600.16;5030171;28;20107;-71
2023/05/01 04:51:20;;;;;;;2.73;1.13;;;;;;;21.28;37.03;101609.97;5030642;28;20378;-70
2023/05/01 04:53:46;;;;;;;1.87;1.20;;;;;;;21.33;37.09;101600.88;5029822;28;20041;-70
2023/05/01 04:56:11;;;;;;;3.47;1.30;;;;;;;21.53;36.38;101607.19;5029657;28;20021;-70
2023/05/01 04:58:36;;;;;;;7.13;1.60;;;;;;;21.02;36.82;101604.00;5046022;28;20029;-71
2023/05/01 05:01:02;;;;;;;1.33;1.20;;;;;;;20.93;36.80;101602.56;5031433;28;20029;-70
2023/05/01 05:03:27;;;;;;;1.73;1.10;;;;;;;21.28;36.52;101602.88;5029610;28;20026;-70
2023/05/01 05:05:52;;;;;;;1.80;1.20;;;;;;;21.12;36.87;101602.66;5030499;28;20846;-70
2023/05/01 05:08:18;;;;;;;3.50;1.67;;;;;;;21.00;36.46;101597.88;5046133;28;20026;-70
2023/05/01 05:10:43;;;;;;;1.85;1.30;;;;;;;20.94;36.54;101599.00;5029872;28;20553;-71
2023/05/01 05:13:09;;;;;;;2.35;1.35;;;;;;;20.35;37.32;101595.13;5028533;28;20524;-69
2023/05/01 05:15:34;;;;;;;2.17;1.42;;;;;;;20.69;37.11;101604.44;5029693;28;20056;-70
2023/05/01 05:17:59;;;;;;;4.30;1.50;;;;;;;20.86;36.58;101601.09;5029668;28;20025;-71
2023/05/01 05:20:25;;;;;;;1.87;1.37;;;;;;;20.69;37.31;101604.44;5029846;28;20142;-71
2023/05/01 05:22:51;;;;;;;3.07;1.40;;;;;;;20.82;37.21;101599.50;5029796;28;20048;-70
2023/05/01 05:25:16;;;;;;;2.40;1.47;;;;;;;20.22;37.81;101597.38;5030627;28;20063;-71
2023/05/01 05:27:42;;;;;;;2.53;1.30;;;;;;;21.15;36.71;101597.22;5030117;28;20401;-70
2023/05/01 05:30:08;;;;;;;2.63;1.30;;;;;;;20.50;37.64;101597.19;5029015;28;20533;-71
2023/05/01 05:32:33;;;;;;;3.70;1.30;;;;;;;21.02;36.61;101590.72;5029331;28;20088;-70
2023/05/01 05:34:58;;;;;;;4.07;1.17;;;;;;;20.97;36.53;101598.00;5030083;28;20079;-71
2023/05/01 05:37:24;;;;;;;2.80;1.40;;;;;;;21.17;36.44;101595.38;5028828;28;20025;-71
2023/05/01 05:39:51;;;;;;;2.57;1.33;;;;;;;21.71;35.92;101596.63;5029333;28;20105;-71
2023/05/01 05:42:16;;;;;;;3.00;1.37;;;;;;;21.90;35.58;101591.34;5028010;28;20057;-70
2023/05/01 05:44:41;;;;;;;2.40;1.30;;;;;;;21.02;36.11;101590.72;5029165;28;20061;-71
2023/05/01 05:47:07;;;;;;;2.47;1.60;;;;;;;20.92;36.77;101597.31;5028667;28;20513;-72
2023/05/01 05:49:32;;;;;;;4.63;1.73;;;;;;;21.45;36.02;101594.16;5027869;28;20511;-69
2023/05/01 05:51:57;;;;;;;2.40;1.60;;;;;;;21.24;35.81;101598.63;5029240;28;20564;-71
2023/05/01 05:54:23;;;;;;;1.95;1.15;;;;;;;21.89;34.40;101594.97;5028354;28;20331;-70
2023/05/01 05:56:48;;;;;;;1.67;1.33;;;;;;;21.92;34.69;101582.34;5029568;28;20397;-70
2023/05/01 05:59:13;;;;;;;2.30;1.07;;;;;;;21.68;34.67;101584.34;5044931;28;20033;-71
2023/05/01 06:01:39;;;;;;;3.33;1.57;;;;;;;22.26;34.47;101585.25;5029952;28;20025;-72
2023/05/01 06:04:05;;;;;;;1.77;1.23;;;;;;;22.42;33.48;101586.28;5028162;28;20025;-71
2023/05/01 06:06:32;;;;;;;1.70;1.10;;;;;;;22.48;34.07;101585.97;5045328;28;20021;-71
2023/05/01 06:08:57;;;;;;;6.25;1.45;;;;;;;22.61;33.15;101580.06;5028140;28;20024;-71
2023/05/01 06:11:22;;;;;;;1.60;1.08;;;;;;;22.65;33.11;101581.63;5028087;28;20084;-71
2023/05/01 06:13:48;;;;;;;4.15;1.55;;;;;;;22.27;32.58;101581.63;5029918;28;20396;-71
2023/05/01 06:16:14;;;;;;;3.03;1.88;;;;;;;22.80;32.00;101583.53;5027527;28;20032;-70
2023/05/01 06:18:40;;;;;;;2.30;1.35;;;;;;;22.50;32.56;101584.13;5028736;28;20021;-72
2023/05/01 06:21:05;;;;;;;4.00;1.40;;;;;;;22.94;31.81;101584.66;5028108;28;20405;-71
2023/05/01 06:23:33;;;;;;;1.98;1.23;;;;;;;22.90;31.41;101581.25;5027890;28;20021;-71
2023/05/01 06:25:59;;;;;;;2.20;1.20;;;;;;;23.16;31.08;101582.66;5028469;28;20029;-71
2023/05/01 06:28:24;;;;;;;2.15;1.20;;;;;;;23.20;31.47;101584.22;5028046;28;20424;-71
2023/05/01 06:30:49;;;;;;;4.05;1.38;;;;;;;22.79;32.26;101584.50;5029080;28;20032;-71
2023/05/01 06:33:15;;;;;;;2.15;1.23;;;;;;;22.60;32.26;101584.53;5029127;28;20025;-71
2023/05/01 06:35:40;;;;;;;1.63;1.23;;;;;;;23.25;31.36;101586.66;5029830;28;20108;-72
2023/05/01 06:38:05;;;;;;;7.78;1.90;;;;;;;23.42;31.32;101588.44;5027065;28;20060;-71
2023/05/01 06:40:33;;;;;;;2.00;1.13;;;;;;;23.27;31.70;101589.22;5028511;28;20100;-70
2023/05/01 06:42:59;;;;;;;4.20;1.77;;;;;;;23.28;30.89;101586.47;5028355;28;20457;-70
2023/05/01 06:45:25;;;;;;;2.20;1.48;;;;;;;22.72;31.45;101592.84;5026942;28;20048;-71
2023/05/01 06:47:50;;;;;;;1.52;1.30;;;;;;;23.00;31.25;101581.69;5030069;28;20112;-71
2023/05/01 06:50:15;;;;;;;4.40;1.40;;;;;;;23.02;31.59;101580.63;5027802;28;20516;-70
2023/05/01 06:52:41;;;;;;;4.38;1.25;;;;;;;22.99;31.58;101579.97;5028846;28;20477;-70
2023/05/01 06:55:07;;;;;;;2.58;1.35;;;;;;;22.33;32.50;101578.69;5044195;28;20138;-71
2023/05/01 06:57:32;;;;;;;3.33;1.58;;;;;;;23.02;31.92;101582.47;5029484;28;20025;-71
2023/05/01 06:59:57;;;;;;;2.35;1.42;;;;;;;23.47;31.70;101589.06;5027532;28;20025;-71
2023/05/01 07:02:23;;;;;;;3.28;1.30;;;;;;;22.86;33.15;101583.25;5030022;28;20022;-70
2023/05/01 07:04:48;;;;;;;3.38;1.52;;;;;;;23.55;31.90;101578.84;5032054;28;20138;-72
2023/05/01 07:07:13;;;;;;;2.60;1.50;;;;;;;22.79;32.59;101581.81;5030947;28;20024;-71
2023/05/01 07:09:39;;;;;;;3.83;1.17;;;;;;;23.03;32.19;101587.72;5032182;28;20025;-71
2023/05/01 07:12:05;;;;;;;6.47;1.60;;;;;;;23.20;32.16;101586.91;5030717;28;20028;-72
2023/05/01 07:14:30;;;;;;;3.95;1.65;;;;;;;24.09;31.37;101585.78;5031986;28;20021;-71
2023/05/01 07:16:56;;;;;;;2.97;1.55;;;;;;;24.03;30.55;101583.47;5032202;28;20116;-71
2023/05/01 07:19:21;;;;;;;1.75;1.35;;;;;;;24.45;31.01;101590.00;5032099;28;20032;-71
2023/05/01 07:21:47;;;;;;;2.30;1.00;;;;;;;24.45;31.13;101586.47;5033233;28;20021;-73
2023/05/01 07:24:12;;;;;;;6.43;1.83;;;;;;;24.37;30.95;101589.56;5032665;28;20028;-71
2023/05/01 07:26:37;;;;;;;3.88;1.65;;;;;;;24.60;30.46;101592.75;5047871;28;20037;-72
2023/05/01 07:29:04;;;;;;;2.85;1.70;;;;;;;25.12;29.74;101588.88;5033201;28;20025;-71
2023/05/01 07:31:29;;;;;;;2.65;1.58;;;;;;;25.08;29.90;101593.53;5033145;28;20021;-73
2023/05/01 07:33:55;;;;;;;2.22;1.52;;;;;;;24.82;29.92;101598.59;5032411;28;20428;-72
2023/05/01 07:36:21;;;;;;;2.55;1.52;;;;;;;24.99;30.58;101600.31;5031248;28;20073;-72
2023/05/01 07:38:47;;;;;;;2.75;1.80;;;;;;;24.65;31.79;101601.41;5033071;28;20085;-71
2023/05/01 07:41:12;;;;;;;2.58;1.65;;;;;;;24.33;31.02;101596.03;5046881;28;20029;-72
2023/05/01 07:43:38;;;;;;;2.78;1.77;;;;;;;24.19;31.58;101595.03;5047993;28;20389;-73
2023/05/01 07:46:05;;;;;;;2.83;1.50;;;;;;;24.26;32.23;101592.84;5031264;28;20115;-72
2023/05/01 07:48:30;;;;;;;2.28;1.38;;;;;;;24.50;30.85;101590.59;5047427;28;20117;-71
2023/05/01 07:50:56;;;;;;;4.28;2.70;;;;;;;24.28;31.32;101590.13;5032850;28;20111;-72
2023/05/01 07:53:22;;;;;;;2.00;1.50;;;;;;;23.98;31.83;101590.84;5047243;28;20049;-71
2023/05/01 07:55:48;;;;;;;2.45;1.80;;;;;;;24.70;31.36;101589.50;5032032;28;20075;-71
2023/05/01 07:58:14;;;;;;;1.95;1.58;;;;;;;24.45;31.49;101587.31;5030619;28;20389;-72
2023/05/01 08:00:40;;;;;;;2.47;1.70;;;;;;;24.61;31.89;101591.81;5047945;28;20021;-71
2023/05/01 08:03:05;;;;;;;4.93;1.67;;;;;;;24.70;31.52;101591.31;5029919;28;20022;-72
2023/05/01 08:05:31;;;;;;;2.35;2.10;;;;;;;24.32;32.03;101586.31;5031152;28;20052;-73
2023/05/01 08:07:57;;;;;;;4.13;2.00;;;;;;;24.20;32.15;101586.03;5030933;28;20047;-72
2023/05/01 08:10:22;;;;;;;3.13;1.98;;;;;;;24.95;31.60;101582.72;5031096;28;20045;-71
2023/05/01 08:12:47;;;;;;;3.47;1.90;;;;;;;24.89;31.98;101578.59;5032065;28;20122;-71
2023/05/01 08:15:13;;;;;;;2.20;1.70;;;;;;;25.73;31.16;101586.97;5031780;28;20029;-73
2023/05/01 08:17:38;;;;;;;5.68;1.75;;;;;;;25.57;31.49;101593.28;5030300;28;20029;-71
2023/05/01 08:20:04;;;;;;;3.25;1.63;;;;;;;26.10;30.21;101586.50;5030236;28;20030;-72
2023/05/01 08:22:30;;;;;;;2.05;1.55;;;;;;;26.07;30.57;101585.72;5031435;28;20017;-71
2023/05/01 08:24:56;;;;;;;5.50;1.48;;;;;;;26.21;30.32;101590.22;5032061;28;20029;-72
2023/05/01 08:27:21;;;;;;;2.40;1.98;;;;;;;24.99;30.56;101588.72;5031600;28;20070;-71
2023/05/01 08:29:46;;;;;;;8.57;2.17;;;;;;;25.14;31.22;101598.53;5031344;28;20148;-73
2023/05/01 08:32:13;;;;;;;3.00;1.55;;;;;;;25.18;30.19;101589.38;5030087;28;20030;-70
2023/05/01 08:34:39;;;;;;;3.60;1.60;;;;;;;25.52;29.94;101591.84;5030477;28;20025;-70
2023/05/01 08:37:04;;;;;;;3.40;1.88;;;;;;;25.96;29.91;101593.56;5029308;28;20366;-71
2023/05/01 08:39:29;;;;;;;3.40;2.03;;;;;;;24.63;31.57;101597.97;5047001;28;20037;-71
2023/05/01 08:41:57;;;;;;;2.13;1.60;;;;;;;24.90;32.24;101600.84;5031707;28;20540;-70
2023/05/01 08:44:24;;;;;;;3.55;2.42;;;;;;;25.29;31.54;101601.25;5029087;28;20032;-70
2023/05/01 08:47:07;;;;;;;3.78;2.05;;;;;;;24.61;32.01;101599.84;5030194;28;20021;-71
2023/05/01 08:49:35;;;;;;;4.57;2.22;;;;;;;24.92;32.52;101603.44;5031592;28;20087;-70
2023/05/01 08:52:02;;;;;;;3.53;2.00;;;;;;;24.93;32.64;101608.69;5030776;28;20546;-71
2023/05/01 08:54:29;;;;;;;2.80;1.70;;;;;;;24.68;32.54;101615.44;5029769;28;20049;-71
2023/05/01 08:57:01;;;;;;;3.13;1.83;;;;;;;24.71;32.15;101622.44;5031607;28;20029;-70
2023/05/01 08:59:27;;;;;;;4.25;1.63;;;;;;;24.27;33.32;101623.94;5045213;28;20493;-70
2023/05/01 09:01:54;;;;;;;2.47;1.60;;;;;;;24.02;33.84;101619.97;5031343;28;20375;-71
2023/05/01 09:04:20;;;;;;;4.30;1.83;;;;;;;23.45;35.37;101622.09;5029237;28;20424;-70
2023/05/01 09:06:46;;;;;;;6.57;2.35;;;;;;;23.02;35.82;101627.78;5030613;28;20084;-71
2023/05/01 09:09:11;;;;;;;2.80;1.52;;;;;;;23.36;35.49;101628.78;5029241;28;20025;-70
2023/05/01 09:11:37;;;;;;;4.50;2.03;;;;;;;23.13;35.44;101628.13;5030464;28;20106;-70
2023/05/01 09:14:07;;;;;;;3.83;2.25;;;;;;;23.97;33.81;101626.50;5031140;28;20025;-71
2023/05/01 09:16:32;;;;;;;4.00;1.95;;;;;;;24.28;33.75;101635.53;5046458;28;20022;-70
2023/05/01 09:18:58;;;;;;;3.33;1.77;;;;;;;23.32;34.65;101624.53;5030446;28;20037;-70
2023/05/01 09:21:24;;;;;;;4.80;2.13;;;;;;;24.03;33.80;101629.72;5030432;28;20211;-71
2023/05/01 09:23:50;;;;;;;4.18;2.20;;;;;;;23.44;34.25;101629.25;5030447;28;20036;-70
2023/05/01 09:26:15;;;;;;;4.43;2.10;;;;;;;23.79;34.43;101639.00;5027927;28;20385;-70
2023/05/01 09:28:40;;;;;;;3.83;1.70;;;;;;;22.99;35.05;101636.78;5029494;28;20472;-71
2023/05/01 09:31:31;;;;;;;3.90;1.85;;;;;;;22.86;35.53;101644.53;5028900;28;20068;-72
2023/05/01 09:34:05;;;;;;;3.92;1.80;;;;;;;23.24;34.35;101632.91;5045434;28;20026;-70
2023/05/01 09:36:32;;;;;;;6.75;2.30;;;;;;;24.56;32.70;101630.34;5029502;28;20037;-71
2023/05/01 09:38:59;;;;;;;4.70;2.20;;;;;;;24.28;33.62;101639.03;5029048;28;20033;-70
2023/05/01 09:41:25;;;;;;;3.65;2.05;;;;;;;22.72;34.96;101636.34;5028163;28;20029;-71
2023/05/01 09:43:55;;;;;;;3.67;2.30;;;;;;;23.59;34.12;101637.38;5029161;28;20028;-71
2023/05/01 09:46:23;;;;;;;5.00;2.17;;;;;;;22.87;34.76;101643.59;5028679;28;20176;-70
2023/05/01 09:48:54;;;;;;;4.20;2.28;;;;;;;22.88;35.37;101637.31;5028271;28;20508;-70
2023/05/01 09:51:30;;;;;;;6.70;2.17;;;;;;;23.59;34.68;101642.72;5028556;28;20029;-70
2023/05/01 09:54:01;;;;;;;2.88;2.53;;;;;;;22.80;36.27;101644.81;5029390;28;20410;-70
2023/05/01 09:56:28;;;;;;;4.55;2.38;;;;;;;21.67;38.08;101665.94;5028568;28;20111;-70
2023/05/01 09:58:55;;;;;;;6.03;2.67;;;;;;;22.71;37.04;101650.63;5029027;28;20094;-71
2023/05/01 10:01:43;;;;;;;5.68;2.30;;;;;;;23.68;35.67;101648.41;5029124;28;20048;-71
2023/05/01 10:04:09;;;;;;;4.13;2.53;;;;;;;22.46;37.60;101657.13;5045360;28;20439;-71
2023/05/01 10:06:36;;;;;;;6.55;2.67;;;;;;;22.23;38.88;101657.28;5030212;28;20100;-71
2023/05/01 10:09:02;;;;;;;3.95;2.55;;;;;;;21.94;39.56;101675.44;5027985;28;20029;-72
2023/05/01 10:11:28;;;;;;;5.90;2.67;;;;;;;20.81;42.20;101665.06;5029628;28;20200;-72
2023/05/01 10:14:07;;;;;;;9.05;2.58;;;;;;;20.73;43.19;101674.25;5028991;28;20025;-72
2023/05/01 10:16:34;;;;;;;6.63;2.67;;;;;;;22.12;40.97;101671.06;5028187;28;20025;-71
2023/05/01 10:19:01;;;;;;;6.55;2.40;;;;;;;20.95;43.37;101674.25;5030027;28;20056;-71
2023/05/01 10:21:26;;;;;;;5.72;2.33;;;;;;;21.92;42.61;101669.31;5029459;28;20032;-71
2023/05/01 10:23:53;;;;;;;7.40;2.22;;;;;;;21.27;43.59;101674.75;5027797;28;20044;-71
2023/05/01 10:26:19;;;;;;;4.63;2.45;;;;;;;21.29;43.76;101672.88;5029418;28;20505;-71
2023/05/01 10:28:48;;;;;;;4.63;1.90;;;;;;;20.78;45.87;101665.16;5028574;28;20029;-71
2023/05/01 10:31:15;;;;;;;5.07;2.40;;;;;;;20.98;45.78;101675.00;5027155;28;20074;-71
2023/05/01 10:33:42;;;;;;;6.32;2.97;;;;;;;20.48;46.98;101675.16;5045241;28;20033;-71
2023/05/01 10:36:18;;;;;;;7.30;2.78;;;;;;;20.13;48.21;101680.88;5028337;28;20026;-71
2023/05/01 10:38:47;;;;;;;4.78;2.30;;;;;;;20.89;46.52;101671.84;5029885;28;20036;-70
2023/05/01 10:41:14;;;;;;;8.77;2.80;;;;;;;19.73;48.14;101679.63;5027949;28;20512;-71
2023/05/01 10:43:40;;;;;;;4.22;2.30;;;;;;;20.20;47.94;101675.34;5027617;28;20018;-71
2023/05/01 10:46:08;;;;;;;4.38;2.53;;;;;;;21.10;46.76;101678.97;5027870;28;20511;-70
2023/05/01 10:48:37;;;;;;;9.77;2.95;;;;;;;20.80;47.32;101671.28;5028181;28;20504;-71
2023/05/01 10:51:20;;;;;;;10.15;2.53;;;;;;;19.96;50.37;101681.50;5028813;28;20067;-70
2023/05/01 10:53:46;;;;;;;;;;;;;;;20.33;49.18;101679.25;5029935;28;20132;-71
2023/05/01 10:56:20;;;;;;;4.70;2.27;;;;;;;19.97;50.14;101674.41;5029015;28;19909;-71
2023/05/01 10:58:50;;;;;;;4.60;2.80;;;;;;;20.37;49.18;101672.06;5027791;28;20029;-70
2023/05/01 11:01:31;;;;;;;8.07;2.85;;;;;;;20.28;49.62;101674.13;5027704;28;20029;-70
2023/05/01 11:03:59;;;;;;;3.97;2.38;;;;;;;21.64;47.17;101678.53;5028123;28;20379;-71
2023/05/01 11:06:25;;;;;;;4.60;2.80;;;;;;;20.13;49.92;101686.19;5028372;28;20029;-70
2023/05/01 11:08:52;;;;;;;5.80;2.83;;;;;;;20.98;48.72;101679.47;5028226;28;20032;-70
2023/05/01 11:11:20;;;;;;;5.50;2.35;;;;;;;20.77;48.54;101675.84;5026894;28;20052;-70
2023/05/01 11:14:09;;;;;;;5.33;2.60;;;;;;;21.14;47.35;101680.56;5028264;28;20044;-70
2023/05/01 11:16:41;;;;;;;4.10;2.50;;;;;;;21.32;47.05;101678.03;5028084;28;20389;-70
2023/05/01 11:19:09;;;;;;;3.97;2.47;;;;;;;21.32;46.79;101672.72;5026847;28;20048;-70
2023/05/01 11:21:35;;;;;;;3.10;2.25;;;;;;;20.42;48.88;101670.09;5027863;28;20021;-69
2023/05/01 11:24:05;;;;;;;4.57;2.25;;;;;;;20.88;48.78;101664.78;5029102;28;20025;-69
2023/05/01 11:26:31;;;;;;;6.22;2.88;;;;;;;21.28;48.00;101665.81;5028682;28;20108;-70